Ana Sayfa
METAR-TAF:

METAR-TAF

Havaalanları :

Zonguldak Havalimanı

Zonguldak, Türkiye

Enlem: 41-27N, Boylam: 031-48E, yükseklik: 136 m

Güncel hava durumu gözlemi

Rapor saat 13:50 UTC de 9 saat ve 55 dakika önce yapıldı.
Rüzgar güneydan 4 kt
Sıcaklık 16°C
Nem 42%
Basınç 1008 hPa
Görüş mesafesi 10 km veya daha fazla
3500 ft yükseklikte az bulutlu
10000 ft yükseklikte parçalı bulutlu

METAR: LTAS 231350Z 17004KT 9999 FEW035 SCT100 16/03 Q1008

Saat: 02:45 (23:45 UTC)

Tahmin

Rapor saat 13:40 UTC de 10 saat ve 5 dakika önce yapıldı.
Ayın 23'si saat 15 UTC'den ayın 23'si saat 24 UTC'ye kadar geçerli Tahmin
Rüzgar güneydan 7 kt
Görüş mesafesi 10 km veya daha fazla
3500 ft yükseklikte parçalı bulutlu
10000 ft yükseklikte parçalı çok bulutlu

TAF: LTAS 231340Z 2315/2324 18007KT 9999 SCT035 BKN100

4.000'den fazla havaalanı için hava durumu gözlemleri ve tahminleri (METAR ve TAF raporları).

Kullanılabilir istasyonlar harita üzerinde sarı ve kırmızı noktalarla gösterilir.

İstasyonun adını görmek için fareyi noktanın üzerinde gezdirin.

Sonrasında hava gözlem ve tahminlerini görmek için tıklayın.

Haritayı değiştirmek için: yaklaştırmak için siyah artı işaretli yeşil düğmeye ve uzaklaştırmak için de eksi işaretli düğmeye hızla tıklayın; bitişik haritalar için yeşil okları kullanın.


METAR-TAF: